Time;durP1;ratioP1;P1;durP2;ratioP2;P2;SDS_P1;SDS_P2;PMS_P1;PMS_P2;Temp;Humidity;BMP_temperature;BMP_pressure;BME280_temperature;BME280_humidity;BME280_pressure;Samples;Min_cycle;Max_cycle;Signal;HPM_P1;HPM_P2
2023/05/11 00:00:35;;;;;;;;;;;16.00;99.90;;;;;;5091300;28;19916;-67
2023/05/11 00:03:02;;;;;;;;;;;16.10;99.90;;;;;;5092052;28;19912;-68
2023/05/11 00:05:28;;;;;;;;;;;16.30;99.90;;;;;;5091753;28;19912;-68
2023/05/11 00:07:55;;;;;;;;;;;16.40;99.90;;;;;;5091582;28;21094;-67
2023/05/11 00:10:22;;;;;;;;;;;16.50;99.90;;;;;;5089943;28;19909;-67
2023/05/11 00:12:48;;;;;;;;;;;16.60;99.90;;;;;;5091615;28;19920;-67
2023/05/11 00:15:15;;;;;;;;;;;16.60;99.90;;;;;;5091586;28;19947;-67
2023/05/11 00:17:42;;;;;;;;;;;16.80;99.90;;;;;;5092023;28;19919;-67
2023/05/11 00:20:08;;;;;;;;;;;16.80;99.90;;;;;;5092104;28;19920;-67
2023/05/11 00:22:35;;;;;;;;;;;16.90;99.90;;;;;;5091857;28;20018;-68
2023/05/11 00:25:02;;;;;;;;;;;16.90;99.90;;;;;;5091772;28;20409;-68
2023/05/11 00:27:29;;;;;;;;;;;17.00;99.90;;;;;;5091424;28;20011;-68
2023/05/11 00:29:56;;;;;;;;;;;17.10;99.90;;;;;;5091402;28;19912;-66
2023/05/11 00:32:22;;;;;;;;;;;17.10;99.90;;;;;;5091008;28;19960;-67
2023/05/11 00:34:49;;;;;;;;;;;17.20;99.90;;;;;;5091567;28;20342;-67
2023/05/11 00:37:16;;;;;;;;;;;17.20;99.90;;;;;;5091433;28;19915;-68
2023/05/11 00:39:42;;;;;;;;;;;17.40;99.90;;;;;;5090886;28;20046;-68
2023/05/11 00:42:10;;;;;;;;;;;17.40;99.90;;;;;;5091238;28;20435;-67
2023/05/11 00:44:36;;;;;;;;;;;17.60;99.90;;;;;;5106901;28;19922;-68
2023/05/11 00:47:03;;;;;;;;;;;17.70;99.90;;;;;;5109420;28;19927;-68
2023/05/11 00:49:30;;;;;;;;;;;17.80;99.90;;;;;;5091093;28;20380;-68
2023/05/11 00:51:56;;;;;;;;;;;17.70;99.90;;;;;;5090660;28;19920;-68
2023/05/11 00:54:24;;;;;;;;;;;17.90;99.90;;;;;;5091898;28;20372;-68
2023/05/11 00:56:50;;;;;;;;;;;18.00;99.90;;;;;;5091389;28;19915;-68
2023/05/11 00:59:17;;;;;;;;;;;18.00;99.90;;;;;;5091305;28;20373;-68
2023/05/11 01:01:44;;;;;;;;;;;18.10;99.90;;;;;;5090726;28;20300;-67
2023/05/11 01:04:11;;;;;;;;;;;18.10;99.90;;;;;;5091054;28;19974;-67
2023/05/11 01:06:52;;;;;;;;;;;18.20;99.90;;;;;;5090895;28;20482;-67
2023/05/11 01:09:37;;;;;;;;;;;18.40;99.90;;;;;;5091248;28;19916;-67
2023/05/11 01:12:06;;;;;;;;;;;18.50;99.90;;;;;;5091417;28;20008;-68
2023/05/11 01:14:42;;;;;;;;;;;18.70;99.90;;;;;;5090644;28;19974;-67
2023/05/11 01:17:14;;;;;;;;;;;18.80;99.90;;;;;;5091306;28;19908;-67
2023/05/11 01:19:43;;;;;;;;;;;18.80;99.90;;;;;;5094292;28;20417;-67
2023/05/11 01:22:30;;;;;;;;;;;18.80;99.90;;;;;;5095894;28;20447;-66
2023/05/11 01:25:25;;;;;;;;;;;19.00;99.90;;;;;;5050479;28;19912;-67
2023/05/11 01:28:21;;;;;;;;;;;19.00;99.90;;;;;;5078031;28;19909;-67
2023/05/11 01:30:53;;;;;;;;;;;19.30;99.90;;;;;;4994476;28;20208;-67
2023/05/11 01:33:24;;;;;;;;;;;19.40;99.90;;;;;;5095303;28;19923;-67
2023/05/11 01:35:52;;;;;;;;;;;19.60;99.90;;;;;;5095183;28;19924;-66
2023/05/11 01:38:19;;;;;;;;;;;19.80;99.90;;;;;;5095432;28;19919;-66
2023/05/11 01:40:50;;;;;;;;;;;19.90;99.90;;;;;;5094773;28;19953;-66
2023/05/11 01:43:20;;;;;;;;;;;20.20;99.90;;;;;;5093040;28;19920;-66
2023/05/11 01:45:48;;;;;;;;;;;20.30;99.90;;;;;;5094820;28;19998;-67
2023/05/11 01:48:17;;;;;;;;;;;20.60;99.90;;;;;;5094991;28;19947;-67
2023/05/11 01:50:45;;;;;;;;;;;20.70;99.90;;;;;;5095088;28;20368;-67
2023/05/11 01:53:13;;;;;;;;;;;20.90;99.90;;;;;;5093758;28;19951;-67
2023/05/11 01:55:41;;;;;;;;;;;21.00;99.30;;;;;;5094150;28;19919;-67
2023/05/11 01:58:09;;;;;;;;;;;20.70;99.30;;;;;;5094414;28;19912;-66
2023/05/11 02:00:37;;;;;;;;;;;20.80;99.70;;;;;;5094578;28;19916;-68
2023/05/11 02:03:05;;;;;;;;;;;21.00;99.40;;;;;;5093880;28;19912;-67
2023/05/11 02:05:33;;;;;;;;;;;21.10;99.30;;;;;;5094433;28;19999;-67
2023/05/11 02:08:02;;;;;;;;;;;21.40;98.70;;;;;;5094201;28;19931;-67
2023/05/11 02:10:28;;;;;;;;;;;21.50;98.30;;;;;;5094372;28;19912;-67
2023/05/11 02:12:55;;;;;;;;;;;21.60;98.00;;;;;;5093794;28;19943;-66
2023/05/11 02:15:23;;;;;;;;;;;21.50;96.80;;;;;;5093361;28;19919;-67
2023/05/11 02:17:50;;;;;;;;;;;21.50;96.70;;;;;;5094211;28;19918;-68
2023/05/11 02:20:18;;;;;;;;;;;21.50;96.60;;;;;;5093435;28;20359;-67
2023/05/11 02:22:45;;;;;;;;;;;21.50;96.80;;;;;;5092986;28;19996;-67
2023/05/11 02:25:11;;;;;;;;;;;21.40;97.20;;;;;;5093311;28;19961;-66
2023/05/11 02:27:38;;;;;;;;;;;21.30;97.10;;;;;;5093432;28;19990;-67
2023/05/11 02:30:07;;;;;;;;;;;21.40;96.80;;;;;;5092286;28;20444;-65
2023/05/11 02:32:35;;;;;;;;;;;21.50;95.40;;;;;;5093148;28;19913;-66
2023/05/11 02:35:06;;;;;;;;;;;21.40;95.20;;;;;;5093778;28;19908;-66
2023/05/11 02:37:34;;;;;;;;;;;21.40;96.00;;;;;;5093919;28;19908;-67
2023/05/11 02:40:04;;;;;;;;;;;21.30;95.80;;;;;;5093343;28;19920;-67
2023/05/11 02:42:35;;;;;;;;;;;21.40;95.70;;;;;;5094009;28;20413;-67
2023/05/11 02:45:04;;;;;;;;;;;21.50;96.30;;;;;;5093704;28;20149;-65
2023/05/11 02:47:32;;;;;;;;;;;21.80;95.50;;;;;;5093980;28;19954;-67
2023/05/11 02:50:01;;;;;;;;;;;22.00;95.90;;;;;;5093415;28;19916;-66
2023/05/11 02:52:28;;;;;;;;;;;22.00;94.40;;;;;;5093619;28;19953;-66
2023/05/11 02:54:56;;;;;;;;;;;22.00;94.40;;;;;;5093209;28;19912;-66
2023/05/11 02:57:23;;;;;;;;;;;22.00;95.20;;;;;;5093573;28;20426;-66
2023/05/11 02:59:50;;;;;;;;;;;22.10;94.20;;;;;;5092548;28;19981;-67
2023/05/11 03:02:16;;;;;;;;;;;22.70;93.80;;;;;;5093160;28;19916;-66
2023/05/11 03:04:43;;;;;;;;;;;23.10;92.80;;;;;;5092851;28;19942;-65
2023/05/11 03:07:10;;;;;;;;;;;23.80;92.40;;;;;;5092930;28;19908;-67
2023/05/11 03:09:36;;;;;;;;;;;24.80;91.00;;;;;;5092613;28;20426;-66
2023/05/11 03:12:03;;;;;;;;;;;25.00;90.10;;;;;;5073215;28;19970;-66
2023/05/11 03:14:31;;;;;;;;;;;25.00;89.10;;;;;;5073089;28;19908;-66
2023/05/11 03:16:59;;;;;;;;;;;24.70;89.50;;;;;;5090843;28;19916;-67
2023/05/11 03:19:27;;;;;;;;;;;24.70;89.70;;;;;;5093029;28;19924;-66
2023/05/11 03:21:54;;;;;;;;;;;25.10;88.10;;;;;;5093193;28;19943;-66
2023/05/11 03:24:21;;;;;;;;;;;26.00;84.00;;;;;;5093420;28;19908;-67
2023/05/11 03:26:49;;;;;;;;;;;26.90;81.50;;;;;;5092706;28;19999;-66
2023/05/11 03:29:17;;;;;;;;;;;28.10;81.30;;;;;;5093162;28;20281;-66
2023/05/11 03:31:43;;;;;;;;;;;30.00;76.30;;;;;;5092926;28;19970;-68
2023/05/11 03:34:10;;;;;;;;;;;31.90;75.20;;;;;;5093142;28;19908;-67
2023/05/11 03:36:38;;;;;;;;;;;33.00;74.20;;;;;;5092070;28;19912;-67
2023/05/11 03:39:07;;;;;;;;;;;34.10;71.50;;;;;;5091586;28;20005;-66
2023/05/11 03:41:34;;;;;;;;;;;34.60;69.80;;;;;;5089591;28;19916;-67
2023/05/11 03:44:02;;;;;;;;;;;35.20;68.30;;;;;;5091515;28;19912;-67
2023/05/11 03:46:29;;;;;;;;;;;35.20;67.10;;;;;;5091208;28;19946;-66
2023/05/11 03:48:56;;;;;;;;;;;35.50;67.40;;;;;;5091304;28;19914;-68
2023/05/11 03:51:23;;;;;;;;;;;35.10;66.50;;;;;;5091275;28;19908;-67
2023/05/11 03:53:49;;;;;;;;;;;35.10;65.80;;;;;;5092972;28;19908;-67
2023/05/11 03:56:16;;;;;;;;;;;35.40;65.90;;;;;;5092521;28;19908;-67
2023/05/11 03:58:43;;;;;;;;;;;35.70;65.30;;;;;;5092832;28;19919;-67
2023/05/11 04:01:12;;;;;;;;;;;36.20;64.10;;;;;;5091629;28;19912;-67
2023/05/11 04:03:52;;;;;;;;;;;35.50;64.30;;;;;;5092501;28;19973;-67
2023/05/11 04:06:19;;;;;;;;;;;35.40;64.50;;;;;;5092502;28;20325;-66
2023/05/11 04:08:46;;;;;;;;;;;35.20;65.00;;;;;;5092557;28;20368;-67
2023/05/11 04:11:13;;;;;;;;;;;34.90;64.50;;;;;;5092045;28;19912;-67
2023/05/11 04:13:39;;;;;;;;;;;34.30;65.50;;;;;;5092683;28;19961;-66
2023/05/11 04:16:06;;;;;;;;;;;33.50;66.50;;;;;;5092423;28;19986;-67
2023/05/11 04:18:33;;;;;;;;;;;33.60;66.60;;;;;;5092560;28;19959;-67
2023/05/11 04:21:00;;;;;;;;;;;33.00;66.40;;;;;;5092347;28;19947;-66
2023/05/11 04:23:26;;;;;;;;;;;31.30;69.30;;;;;;5092626;28;19913;-67
2023/05/11 04:25:53;;;;;;;;;;;29.70;71.50;;;;;;5091843;28;20366;-67
2023/05/11 04:28:22;;;;;;;;;;;28.30;74.90;;;;;;5091749;28;19916;-67
2023/05/11 04:30:55;;;;;;;;;;;27.10;77.50;;;;;;5091991;28;19912;-67
2023/05/11 04:33:22;;;;;;;;;;;26.00;80.00;;;;;;5091500;28;19913;-66
2023/05/11 04:35:53;;;;;;;;;;;25.30;82.50;;;;;;5091783;28;20000;-68
2023/05/11 04:38:20;;;;;;;;;;;24.70;84.70;;;;;;5092019;28;20253;-66
2023/05/11 04:40:47;;;;;;;;;;;24.30;86.40;;;;;;5091699;28;19916;-68
2023/05/11 04:43:14;;;;;;;;;;;23.90;88.00;;;;;;5091542;28;19924;-67
2023/05/11 04:45:41;;;;;;;;;;;23.60;89.20;;;;;;5091759;28;19919;-67
2023/05/11 04:48:07;;;;;;;;;;;23.40;90.20;;;;;;5091649;28;20004;-66
2023/05/11 04:50:36;;;;;;;;;;;23.10;90.60;;;;;;5091640;28;19916;-66
2023/05/11 04:53:02;;;;;;;;;;;22.80;91.20;;;;;;5091706;28;19912;-67
2023/05/11 04:55:29;;;;;;;;;;;22.30;92.20;;;;;;5095968;28;19912;-66
2023/05/11 04:57:55;;;;;;;;;;;22.10;92.70;;;;;;5096026;28;19916;-64
2023/05/11 05:00:22;;;;;;;;;;;22.00;93.30;;;;;;5095193;28;19927;-68
2023/05/11 05:02:50;;;;;;;;;;;21.90;93.70;;;;;;5095337;28;20011;-66
2023/05/11 05:05:16;;;;;;;;;;;21.80;93.80;;;;;;5095382;28;20352;-66
2023/05/11 05:07:43;;;;;;;;;;;21.70;94.20;;;;;;5095620;28;19969;-65
2023/05/11 05:10:11;;;;;;;;;;;21.80;94.40;;;;;;5095535;28;19916;-66
2023/05/11 05:12:38;;;;;;;;;;;22.00;94.70;;;;;;5095616;28;19935;-65
2023/05/11 05:15:05;;;;;;;;;;;22.40;94.20;;;;;;5095924;28;19912;-67
2023/05/11 05:17:32;;;;;;;;;;;22.80;93.40;;;;;;5095140;28;20006;-66
2023/05/11 05:19:58;;;;;;;;;;;23.20;93.10;;;;;;5080168;28;20018;-66
2023/05/11 05:22:25;;;;;;;;;;;23.50;92.10;;;;;;5093037;28;19912;-65
2023/05/11 05:24:52;;;;;;;;;;;23.50;92.70;;;;;;5094127;28;19912;-66
2023/05/11 05:27:18;;;;;;;;;;;23.50;92.10;;;;;;5094536;28;19973;-67
2023/05/11 05:29:45;;;;;;;;;;;23.60;92.60;;;;;;5094390;28;20035;-67
2023/05/11 05:32:12;;;;;;;;;;;23.60;92.80;;;;;;5095439;28;19908;-66
2023/05/11 05:34:38;;;;;;;;;;;23.80;92.10;;;;;;5095120;28;19912;-67
2023/05/11 05:37:05;;;;;;;;;;;23.70;91.80;;;;;;5094156;28;20246;-67
2023/05/11 05:39:31;;;;;;;;;;;23.70;91.90;;;;;;5094857;28;19920;-66
2023/05/11 05:41:58;;;;;;;;;;;23.60;92.30;;;;;;5095168;28;20728;-66
2023/05/11 05:44:25;;;;;;;;;;;24.00;91.40;;;;;;5095008;28;20015;-66
2023/05/11 05:46:51;;;;;;;;;;;24.30;90.50;;;;;;5094002;28;19990;-66
2023/05/11 05:49:18;;;;;;;;;;;24.10;90.90;;;;;;5090562;28;19912;-67
2023/05/11 05:51:44;;;;;;;;;;;24.10;91.00;;;;;;5084818;28;19931;-66
2023/05/11 05:54:12;;;;;;;;;;;24.00;91.30;;;;;;5075883;28;19912;-66
2023/05/11 05:56:39;;;;;;;;;;;23.90;91.50;;;;;;5089972;28;19952;-66
2023/05/11 05:59:07;;;;;;;;;;;23.80;91.70;;;;;;5093746;28;19928;-66
2023/05/11 06:01:35;;;;;;;;;;;23.80;91.50;;;;;;5093597;28;19914;-67
2023/05/11 06:04:02;;;;;;;;;;;23.70;91.40;;;;;;5090180;28;19915;-65
2023/05/11 06:06:29;;;;;;;;;;;23.70;91.50;;;;;;5093536;28;20006;-66
2023/05/11 06:08:55;;;;;;;;;;;23.90;91.60;;;;;;5093746;28;19912;-67
2023/05/11 06:11:22;;;;;;;;;;;24.50;91.00;;;;;;5093862;28;19927;-67
2023/05/11 06:13:48;;;;;;;;;;;25.40;90.30;;;;;;5094518;28;19964;-67
2023/05/11 06:16:15;;;;;;;;;;;26.10;88.50;;;;;;5094127;28;19923;-66
2023/05/11 06:18:42;;;;;;;;;;;26.90;86.30;;;;;;5089940;28;19912;-67
2023/05/11 06:21:08;;;;;;;;;;;27.50;84.60;;;;;;5093700;28;19916;-67
2023/05/11 06:23:35;;;;;;;;;;;27.50;83.10;;;;;;5093446;28;19919;-68
2023/05/11 06:26:02;;;;;;;;;;;26.70;83.40;;;;;;5093944;28;19972;-67
2023/05/11 06:28:28;;;;;;;;;;;25.80;85.50;;;;;;5092950;28;20073;-67
2023/05/11 06:30:58;;;;;;;;;;;24.90;87.90;;;;;;5090155;28;20376;-66
2023/05/11 06:33:25;;;;;;;;;;;24.20;90.00;;;;;;5094160;28;19957;-66
2023/05/11 06:35:52;;;;;;;;;;;23.40;90.80;;;;;;5093361;28;19920;-67
2023/05/11 06:38:18;;;;;;;;;;;22.70;91.90;;;;;;5092731;28;19920;-67
2023/05/11 06:40:45;;;;;;;;;;;22.00;93.10;;;;;;5093510;28;19912;-66
2023/05/11 06:43:12;;;;;;;;;;;21.40;94.10;;;;;;5092791;28;20460;-67
2023/05/11 06:45:40;;;;;;;;;;;21.10;95.00;;;;;;5075828;28;20284;-67
2023/05/11 06:48:07;;;;;;;;;;;20.80;95.80;;;;;;5093140;28;20266;-67
2023/05/11 06:50:33;;;;;;;;;;;20.50;96.60;;;;;;5093427;28;19908;-67
2023/05/11 06:53:00;;;;;;;;;;;20.20;97.30;;;;;;5093807;28;19965;-67
2023/05/11 06:55:26;;;;;;;;;;;19.90;98.00;;;;;;5093801;28;19912;-66
2023/05/11 06:57:53;;;;;;;;;;;19.70;98.60;;;;;;5093609;28;19922;-67
2023/05/11 07:00:20;;;;;;;;;;;19.60;99.00;;;;;;5092025;28;19927;-68
2023/05/11 07:02:46;;;;;;;;;;;19.40;99.50;;;;;;5093371;28;19916;-65
2023/05/11 07:05:13;;;;;;;;;;;19.20;99.90;;;;;;5093570;28;20380;-68
2023/05/11 07:07:40;;;;;;;;;;;19.10;99.90;;;;;;5093218;28;19915;-68
2023/05/11 07:10:07;;;;;;;;;;;19.00;99.90;;;;;;5092160;28;19991;-66
2023/05/11 07:12:34;;;;;;;;;;;18.80;99.90;;;;;;5088553;28;20057;-62
2023/05/11 07:15:01;;;;;;;;;;;18.70;99.90;;;;;;5073251;28;19912;-65
2023/05/11 07:17:27;;;;;;;;;;;18.60;99.90;;;;;;5087250;28;19916;-65
2023/05/11 07:19:54;;;;;;;;;;;18.50;99.90;;;;;;5090583;28;19973;-67
2023/05/11 07:22:21;;;;;;;;;;;18.40;99.90;;;;;;5091503;28;19919;-65
2023/05/11 07:24:47;;;;;;;;;;;18.40;99.90;;;;;;5092575;28;19962;-62
2023/05/11 07:27:14;;;;;;;;;;;18.30;99.90;;;;;;5092306;28;19931;-64
2023/05/11 07:29:41;;;;;;;;;;;18.20;99.90;;;;;;5092001;28;19943;-64
2023/05/11 07:32:07;;;;;;;;;;;18.20;99.90;;;;;;5091605;28;19920;-63
2023/05/11 07:34:34;;;;;;;;;;;18.10;99.90;;;;;;5092236;28;20277;-68
2023/05/11 07:37:00;;;;;;;;;;;18.00;99.90;;;;;;5091905;28;19947;-64
2023/05/11 07:39:27;;;;;;;;;;;18.00;99.90;;;;;;5091302;28;20401;-68
2023/05/11 07:41:54;;;;;;;;;;;18.00;99.90;;;;;;5089290;28;19924;-68
2023/05/11 07:44:20;;;;;;;;;;;17.90;99.90;;;;;;5090815;28;19935;-68
2023/05/11 07:46:47;;;;;;;;;;;17.80;99.90;;;;;;5091238;28;20009;-66
2023/05/11 07:49:14;;;;;;;;;;;17.80;99.90;;;;;;5090798;28;20394;-64
2023/05/11 07:51:40;;;;;;;;;;;17.70;99.90;;;;;;5090540;28;19912;-66
2023/05/11 07:54:07;;;;;;;;;;;17.70;99.90;;;;;;5080637;28;20011;-62
2023/05/11 07:56:34;;;;;;;;;;;17.60;99.90;;;;;;5091113;28;19908;-67
2023/05/11 07:59:00;;;;;;;;;;;17.50;99.90;;;;;;5090600;28;19912;-65
2023/05/11 08:01:27;;;;;;;;;;;17.50;99.90;;;;;;5090261;28;19919;-65
2023/05/11 08:03:54;;;;;;;;;;;17.50;99.90;;;;;;5091122;28;19912;-64
2023/05/11 08:06:20;;;;;;;;;;;17.40;99.90;;;;;;5090479;28;19923;-65
2023/05/11 08:08:47;;;;;;;;;;;17.40;99.90;;;;;;5090951;28;19908;-67
2023/05/11 08:11:14;;;;;;;;;;;17.30;99.90;;;;;;5090585;28;20365;-68
2023/05/11 08:13:41;;;;;;;;;;;17.30;99.90;;;;;;5090632;28;19931;-65
2023/05/11 08:16:07;;;;;;;;;;;17.30;99.90;;;;;;5090859;28;20377;-67
2023/05/11 08:18:34;;;;;;;;;;;17.20;99.90;;;;;;5090855;28;20027;-65
2023/05/11 08:21:01;;;;;;;;;;;17.20;99.90;;;;;;5091167;28;19912;-66
2023/05/11 08:23:27;;;;;;;;;;;17.10;99.90;;;;;;5091446;28;19916;-64
2023/05/11 08:25:54;;;;;;;;;;;17.10;99.90;;;;;;5091041;28;19912;-63
2023/05/11 08:28:21;;;;;;;;;;;17.10;99.90;;;;;;5089144;28;20285;-66
2023/05/11 08:30:55;;;;;;;;;;;17.10;99.90;;;;;;5089882;28;20419;-63
2023/05/11 08:33:22;;;;;;;;;;;17.00;99.90;;;;;;5090940;28;20644;-69
2023/05/11 08:35:49;;;;;;;;;;;17.00;99.90;;;;;;5090454;28;19916;-63
2023/05/11 08:38:17;;;;;;;;;;;17.00;99.90;;;;;;5089968;28;19916;-66
2023/05/11 08:40:46;;;;;;;;;;;17.00;99.90;;;;;;5090146;28;19927;-62
2023/05/11 08:43:17;;;;;;;;;;;16.90;99.90;;;;;;4959717;28;3515590;-65
2023/05/11 08:45:47;;;;;;;;;;;16.90;99.90;;;;;;5091102;28;19912;-67
2023/05/11 08:48:16;;;;;;;;;;;16.90;99.90;;;;;;5091099;28;20359;-67
2023/05/11 08:50:44;;;;;;;;;;;16.90;99.90;;;;;;5091075;28;19915;-67
2023/05/11 08:53:11;;;;;;;;;;;16.80;99.90;;;;;;5091182;28;19912;-62
2023/05/11 08:55:40;;;;;;;;;;;16.80;99.90;;;;;;5091028;28;21116;-64
2023/05/11 08:58:07;;;;;;;;;;;16.80;99.90;;;;;;5089077;28;20195;-65
2023/05/11 09:00:34;;;;;;;;;;;16.70;99.90;;;;;;5089675;28;19977;-64
2023/05/11 09:03:01;;;;;;;;;;;16.70;99.90;;;;;;5090107;28;19916;-64
2023/05/11 09:05:28;;;;;;;;;;;16.70;99.90;;;;;;5089701;28;20271;-65
2023/05/11 09:07:58;;;;;;;;;;;16.70;99.90;;;;;;5089931;28;20363;-63
2023/05/11 09:10:25;;;;;;;;;;;16.70;99.90;;;;;;5089368;28;19920;-63
2023/05/11 09:12:52;;;;;;;;;;;16.70;99.90;;;;;;5089123;28;19909;-63
2023/05/11 09:15:18;;;;;;;;;;;16.60;99.90;;;;;;5086931;28;19919;-67
2023/05/11 09:17:45;;;;;;;;;;;16.60;99.90;;;;;;5089944;28;20304;-66
2023/05/11 09:20:12;;;;;;;;;;;16.60;99.90;;;;;;5089905;28;20292;-67
2023/05/11 09:22:43;;;;;;;;;;;16.50;99.90;;;;;;5087073;28;19963;-67
2023/05/11 09:25:14;;;;;;;;;;;16.50;99.90;;;;;;5089844;28;20496;-65
2023/05/11 09:27:41;;;;;;;;;;;16.50;99.90;;;;;;5089035;28;20008;-68
2023/05/11 09:30:15;;;;;;;;;;;16.40;99.90;;;;;;5089821;28;19908;-65
2023/05/11 09:33:01;;;;;;;;;;;16.40;99.90;;;;;;5087962;28;20018;-65
2023/05/11 09:35:29;;;;;;;;;;;16.30;99.90;;;;;;5088432;28;19912;-67
2023/05/11 09:38:04;;;;;;;;;;;16.30;99.90;;;;;;5089517;28;19912;-67
2023/05/11 09:40:32;;;;;;;;;;;16.30;99.90;;;;;;5092217;28;19916;-65
2023/05/11 09:43:00;;;;;;;;;;;16.20;99.90;;;;;;5092075;28;19928;-62
2023/05/11 09:45:40;;;;;;;;;;;16.20;99.90;;;;;;5094256;28;20254;-64
2023/05/11 09:48:13;;;;;;;;;;;16.10;99.90;;;;;;5094520;28;20353;-68
2023/05/11 09:50:40;;;;;;;;;;;16.00;99.90;;;;;;5094287;28;20501;-66
2023/05/11 09:53:06;;;;;;;;;;;16.00;99.90;;;;;;5094055;28;19916;-66
2023/05/11 09:55:33;;;;;;;;;;;16.00;99.90;;;;;;5095182;28;19908;-68
2023/05/11 09:58:00;;;;;;;;;;;16.00;99.90;;;;;;5094849;28;19908;-66
2023/05/11 10:00:27;;;;;;;;;;;16.00;99.90;;;;;;5093892;28;19920;-65
2023/05/11 10:03:04;;;;;;;;;;;15.90;99.90;;;;;;5093884;28;19912;-68
2023/05/11 10:05:32;;;;;;;;;;;15.90;99.90;;;;;;5094236;28;19919;-66
2023/05/11 10:08:00;;;;;;;;;;;15.90;99.90;;;;;;5093541;28;20006;-67
2023/05/11 10:10:28;;;;;;;;;;;15.90;99.90;;;;;;5094301;28;19908;-67
2023/05/11 10:12:56;;;;;;;;;;;15.90;99.90;;;;;;5093797;28;19919;-67
2023/05/11 10:15:27;;;;;;;;;;;15.90;99.90;;;;;;5093884;28;19908;-67
2023/05/11 10:17:55;;;;;;;;;;;15.90;99.90;;;;;;5093299;28;20436;-66
2023/05/11 10:20:21;;;;;;;;;;;15.90;99.90;;;;;;5093331;28;19920;-65
2023/05/11 10:22:51;;;;;;;;;;;15.90;99.90;;;;;;5093412;28;19909;-66
2023/05/11 10:25:19;;;;;;;;;;;15.90;99.90;;;;;;5093662;28;19908;-67
2023/05/11 10:27:45;;;;;;;;;;;15.90;99.90;;;;;;5073408;28;19919;-66
2023/05/11 10:30:12;;;;;;;;;;;15.80;99.90;;;;;;5091459;28;19912;-66
2023/05/11 10:32:39;;;;;;;;;;;15.70;99.90;;;;;;5086052;28;19916;-63
2023/05/11 10:35:06;;;;;;;;;;;15.70;99.90;;;;;;5081953;28;19920;-66
2023/05/11 10:37:33;;;;;;;;;;;15.70;99.90;;;;;;5091938;28;19915;-64
2023/05/11 10:40:03;;;;;;;;;;;15.60;99.90;;;;;;5091966;28;19924;-66
2023/05/11 10:42:42;;;;;;;;;;;15.60;99.90;;;;;;5089899;28;19924;-66
2023/05/11 10:45:27;;;;;;;;;;;15.50;99.90;;;;;;5093481;28;20430;-63
2023/05/11 10:47:54;;;;;;;;;;;15.40;99.90;;;;;;5089121;28;20002;-66
2023/05/11 10:50:44;;;;;;;;;;;15.40;99.90;;;;;;5092795;28;19919;-64
2023/05/11 10:53:11;;;;;;;;;;;15.40;99.90;;;;;;5091277;28;19912;-67
2023/05/11 10:55:48;;;;;;;;;;;15.40;99.90;;;;;;5093209;28;19914;-68
2023/05/11 10:58:19;;;;;;;;;;;15.30;99.90;;;;;;5093615;28;19953;-68
2023/05/11 11:00:55;;;;;;;;;;;15.20;99.90;;;;;;5092125;28;19962;-65
2023/05/11 11:03:22;;;;;;;;;;;15.20;99.90;;;;;;5092024;28;19935;-65
2023/05/11 11:05:49;;;;;;;;;;;15.10;99.90;;;;;;5092054;28;19924;-65
2023/05/11 11:08:16;;;;;;;;;;;15.10;99.90;;;;;;5092570;28;19919;-67
2023/05/11 11:10:44;;;;;;;;;;;15.10;99.90;;;;;;5092904;28;20422;-67
2023/05/11 11:13:15;;;;;;;;;;;15.00;99.90;;;;;;5092622;28;20018;-63
2023/05/11 11:15:59;;;;;;;;;;;15.00;99.90;;;;;;5091395;28;20368;-67
2023/05/11 11:18:26;;;;;;;;;;;15.00;99.90;;;;;;5092178;28;19920;-68
2023/05/11 11:20:54;;;;;;;;;;;15.00;99.90;;;;;;5091612;28;19920;-67
2023/05/11 11:23:39;;;;;;;;;;;14.90;99.90;;;;;;5091803;28;20376;-67
2023/05/11 11:26:06;;;;;;;;;;;14.90;99.90;;;;;;5092401;28;20408;-68
2023/05/11 11:28:51;;;;;;;;;;;14.90;99.90;;;;;;5092975;28;19912;-68
2023/05/11 11:31:30;;;;;;;;;;;14.80;99.90;;;;;;5092040;28;20338;-68
2023/05/11 11:33:59;;;;;;;;;;;14.80;99.90;;;;;;5092296;28;20373;-68
2023/05/11 11:36:44;;;;;;;;;;;14.80;99.90;;;;;;5091542;28;19986;-67
2023/05/11 11:39:12;;;;;;;;;;;14.80;99.90;;;;;;5091411;28;20006;-68
2023/05/11 11:41:39;;;;;;;;;;;14.70;99.90;;;;;;5091249;28;19916;-64
2023/05/11 11:44:19;;;;;;;;;;;14.70;99.90;;;;;;5091051;28;20428;-67
2023/05/11 11:46:46;;;;;;;;;;;14.70;99.90;;;;;;5092801;28;19909;-64
2023/05/11 11:49:13;;;;;;;;;;;14.60;99.90;;;;;;5092123;28;19919;-63
2023/05/11 11:51:40;;;;;;;;;;;14.50;99.90;;;;;;5073463;28;19904;-65
2023/05/11 11:54:07;;;;;;;;;;;14.60;99.90;;;;;;5092233;28;19915;-66
2023/05/11 11:56:37;;;;;;;;;;;14.50;99.90;;;;;;5090526;28;19987;-65
2023/05/11 11:59:09;;;;;;;;;;;14.50;99.90;;;;;;5092277;28;20005;-69
2023/05/11 12:01:36;;;;;;;;;;;14.50;99.90;;;;;;5092559;28;19918;-67
2023/05/11 12:04:16;;;;;;;;;;;14.40;99.90;;;;;;5091760;28;19915;-65
2023/05/11 12:06:46;;;;;;;;;;;14.40;99.90;;;;;;5092560;28;19912;-66
2023/05/11 12:09:16;;;;;;;;;;;14.40;99.90;;;;;;5092318;28;19954;-62
2023/05/11 12:11:45;;;;;;;;;;;14.40;99.90;;;;;;5092243;28;20322;-67
2023/05/11 12:14:11;;;;;;;;;;;14.40;99.90;;;;;;5092606;28;19908;-66
2023/05/11 12:16:38;;;;;;;;;;;14.30;99.90;;;;;;5092659;28;19912;-66
2023/05/11 12:19:07;;;;;;;;;;;14.30;99.90;;;;;;5092474;28;19917;-64
2023/05/11 12:21:34;;;;;;;;;;;14.30;99.90;;;;;;5073199;28;19916;-66
2023/05/11 12:24:02;;;;;;;;;;;14.20;99.90;;;;;;5091140;28;19908;-68
2023/05/11 12:26:29;;;;;;;;;;;14.30;99.90;;;;;;5090378;28;19971;-67
2023/05/11 12:29:07;;;;;;;;;;;14.20;99.90;;;;;;5092334;28;19912;-65
2023/05/11 12:31:52;;;;;;;;;;;14.20;99.90;;;;;;5082562;28;20015;-67
2023/05/11 12:34:21;;;;;;;;;;;14.20;99.90;;;;;;5092266;28;20084;-67
2023/05/11 12:36:48;;;;;;;;;;;14.20;99.90;;;;;;5090740;28;20368;-67
2023/05/11 12:39:25;;;;;;;;;;;14.10;99.90;;;;;;5091910;28;20014;-63
2023/05/11 12:41:53;;;;;;;;;;;14.10;99.90;;;;;;5092034;28;19916;-62
2023/05/11 12:44:21;;;;;;;;;;;14.10;99.90;;;;;;5092304;28;19912;-63
2023/05/11 12:46:49;;;;;;;;;;;14.10;99.90;;;;;;5092655;28;20003;-63
2023/05/11 12:49:20;;;;;;;;;;;14.10;99.90;;;;;;5092329;28;20377;-62
2023/05/11 12:51:46;;;;;;;;;;;14.10;99.90;;;;;;5092402;28;19938;-63
2023/05/11 12:54:28;;;;;;;;;;;14.00;99.90;;;;;;5092305;28;19908;-68
2023/05/11 12:56:55;;;;;;;;;;;14.00;99.90;;;;;;5092439;28;20336;-63
2023/05/11 12:59:26;;;;;;;;;;;14.00;99.90;;;;;;5074188;28;19923;-63
2023/05/11 13:01:53;;;;;;;;;;;14.00;99.90;;;;;;5092390;28;19954;-63
2023/05/11 13:04:27;;;;;;;;;;;13.90;99.90;;;;;;5092447;28;19908;-64
2023/05/11 13:06:54;;;;;;;;;;;13.90;99.90;;;;;;5092621;28;19995;-67
2023/05/11 13:09:24;;;;;;;;;;;13.90;99.90;;;;;;5092611;28;19954;-63
2023/05/11 13:12:15;;;;;;;;;;;13.90;99.90;;;;;;5092603;28;19908;-62
2023/05/11 13:14:43;;;;;;;;;;;13.90;99.90;;;;;;5093539;28;19920;-64
2023/05/11 13:17:10;;;;;;;;;;;13.90;99.90;;;;;;5096226;28;19912;-63
2023/05/11 13:19:38;;;;;;;;;;;13.90;99.90;;;;;;5095771;28;19920;-63
2023/05/11 13:22:06;;;;;;;;;;;13.90;99.90;;;;;;5096081;28;19973;-62
2023/05/11 13:24:32;;;;;;;;;;;13.90;99.90;;;;;;5078140;28;19963;-63
2023/05/11 13:26:59;;;;;;;;;;;13.90;99.90;;;;;;5096105;28;20015;-64
2023/05/11 13:29:26;;;;;;;;;;;13.80;99.90;;;;;;5096019;28;20437;-63
2023/05/11 13:31:53;;;;;;;;;;;13.80;99.90;;;;;;5095714;28;20016;-63
2023/05/11 13:34:20;;;;;;;;;;;13.80;99.90;;;;;;5095439;28;20322;-63
2023/05/11 13:36:47;;;;;;;;;;;13.70;99.90;;;;;;5095506;28;19912;-63
2023/05/11 13:39:13;;;;;;;;;;;13.70;99.90;;;;;;5095526;28;19927;-63
2023/05/11 13:41:40;;;;;;;;;;;13.80;99.90;;;;;;5095402;28;20292;-65
2023/05/11 13:44:07;;;;;;;;;;;13.70;99.90;;;;;;5095113;28;20376;-66
2023/05/11 13:46:34;;;;;;;;;;;13.70;99.90;;;;;;5095480;28;20062;-67
2023/05/11 13:49:00;;;;;;;;;;;13.70;99.90;;;;;;5095885;28;19951;-64
2023/05/11 13:51:27;;;;;;;;;;;13.60;99.90;;;;;;5095869;28;19995;-66
2023/05/11 13:53:54;;;;;;;;;;;13.60;99.90;;;;;;5095735;28;19953;-66
2023/05/11 13:56:21;;;;;;;;;;;13.70;99.90;;;;;;5095710;28;20364;-62
2023/05/11 13:58:47;;;;;;;;;;;13.60;99.90;;;;;;5095701;28;19956;-65
2023/05/11 14:01:14;;;;;;;;;;;13.60;99.90;;;;;;5095475;28;20006;-65
2023/05/11 14:03:40;;;;;;;;;;;13.50;99.90;;;;;;5095706;28;19992;-63
2023/05/11 14:06:07;;;;;;;;;;;13.60;99.90;;;;;;5095477;28;19954;-62
2023/05/11 14:08:34;;;;;;;;;;;13.60;99.90;;;;;;5095479;28;19908;-64
2023/05/11 14:11:00;;;;;;;;;;;13.50;99.90;;;;;;5095327;28;19909;-64
2023/05/11 14:13:27;;;;;;;;;;;13.50;99.90;;;;;;5095226;28;19961;-65
2023/05/11 14:15:53;;;;;;;;;;;13.50;99.90;;;;;;5095489;28;19908;-63
2023/05/11 14:18:23;;;;;;;;;;;13.50;99.90;;;;;;5095120;28;20010;-66
2023/05/11 14:20:50;;;;;;;;;;;13.50;99.90;;;;;;5094800;28;19920;-63
2023/05/11 14:23:17;;;;;;;;;;;13.40;99.90;;;;;;5094576;28;19935;-63